createdAt,value
2017-12-17T00:01:41.781Z,20.00
2017-12-17T00:04:09.909Z,18.70
2017-12-17T00:06:37.983Z,20.42
2017-12-17T00:09:06.117Z,24.27
2017-12-17T00:11:34.215Z,20.77
2017-12-17T00:14:02.340Z,21.50
2017-12-17T00:16:30.458Z,21.85
2017-12-17T00:18:58.572Z,20.48
2017-12-17T00:21:26.646Z,20.85
2017-12-17T00:23:54.727Z,22.52
2017-12-17T00:26:22.806Z,19.33
2017-12-17T00:28:50.885Z,22.92
2017-12-17T00:31:19.734Z,22.20
2017-12-17T00:33:47.840Z,19.17
2017-12-17T00:36:16.725Z,20.55
2017-12-17T00:38:44.803Z,18.40
2017-12-17T00:41:13.641Z,21.00
2017-12-17T00:43:41.736Z,24.73
2017-12-17T00:46:09.825Z,21.42
2017-12-17T00:48:38.720Z,21.83
2017-12-17T00:51:06.804Z,19.87
2017-12-17T00:53:35.653Z,20.88
2017-12-17T00:56:03.738Z,28.92
2017-12-17T00:58:31.819Z,23.20
2017-12-17T01:01:00.695Z,25.05
2017-12-17T01:03:28.751Z,21.62
2017-12-17T01:05:56.843Z,21.27
2017-12-17T01:08:25.690Z,24.08
2017-12-17T01:10:53.774Z,21.02
2017-12-17T01:13:21.865Z,24.10
2017-12-17T01:15:49.943Z,22.13
2017-12-17T01:18:18.796Z,24.23
2017-12-17T01:20:46.884Z,19.35
2017-12-17T01:23:14.958Z,20.65
2017-12-17T01:25:43.043Z,20.37
2017-12-17T01:28:11.882Z,22.70
2017-12-17T01:30:39.974Z,20.92
2017-12-17T01:33:08.051Z,19.90
2017-12-17T01:35:36.132Z,22.08
2017-12-17T01:38:04.215Z,22.08
2017-12-17T01:40:33.115Z,20.40
2017-12-17T01:43:01.960Z,21.70
2017-12-17T01:45:30.051Z,18.60
2017-12-17T01:47:58.134Z,22.02
2017-12-17T01:50:26.977Z,18.48
2017-12-17T01:52:55.064Z,19.52
2017-12-17T01:55:23.161Z,16.50
2017-12-17T01:57:52.002Z,18.80
2017-12-17T02:00:20.113Z,15.93
2017-12-17T02:02:48.965Z,15.27
2017-12-17T02:05:17.054Z,19.20
2017-12-17T02:07:45.139Z,17.98
2017-12-17T02:10:14.004Z,17.15
2017-12-17T02:12:42.295Z,16.60
2017-12-17T02:15:10.375Z,22.33
2017-12-17T02:17:54.255Z,17.23
2017-12-17T02:20:22.351Z,19.45
2017-12-17T02:22:50.432Z,18.37
2017-12-17T02:25:18.527Z,15.55
2017-12-17T02:27:47.385Z,21.15
2017-12-17T02:30:15.458Z,20.90
2017-12-17T02:32:43.555Z,18.15
2017-12-17T02:35:12.432Z,21.90
2017-12-17T02:37:40.504Z,14.77
2017-12-17T02:40:08.591Z,19.17
2017-12-17T02:42:37.460Z,19.33
2017-12-17T02:45:05.543Z,16.75
2017-12-17T02:47:34.404Z,20.90
2017-12-17T02:50:02.488Z,14.68
2017-12-17T02:52:30.568Z,14.98
2017-12-17T02:54:58.641Z,13.27
2017-12-17T02:57:26.720Z,14.70
2017-12-17T02:59:55.572Z,14.80
2017-12-17T03:02:23.663Z,15.60
2017-12-17T03:04:51.764Z,14.77
2017-12-17T03:07:19.860Z,14.73
2017-12-17T03:09:47.944Z,11.50
2017-12-17T03:12:16.035Z,14.32
2017-12-17T03:14:44.109Z,12.80
2017-12-17T03:17:12.196Z,12.90
2017-12-17T03:19:41.218Z,13.32
2017-12-17T03:22:09.303Z,11.82
2017-12-17T03:24:37.383Z,14.10
2017-12-17T03:27:05.458Z,15.75
2017-12-17T03:29:33.534Z,11.57
2017-12-17T03:32:01.631Z,13.18
2017-12-17T03:34:29.690Z,12.45
2017-12-17T03:36:57.772Z,13.77
2017-12-17T03:39:25.891Z,14.00
2017-12-17T03:41:53.981Z,11.73
2017-12-17T03:44:22.102Z,14.10
2017-12-17T03:46:50.944Z,13.02
2017-12-17T03:49:19.026Z,10.55
2017-12-17T03:51:47.123Z,11.48
2017-12-17T03:54:15.970Z,11.95
2017-12-17T03:56:44.059Z,16.05
2017-12-17T03:59:12.149Z,11.35
2017-12-17T04:01:40.224Z,17.08
2017-12-17T04:04:09.095Z,13.45
2017-12-17T04:06:37.187Z,14.18
2017-12-17T04:09:05.256Z,15.23
2017-12-17T04:11:34.186Z,14.43
2017-12-17T04:14:02.267Z,14.57
2017-12-17T04:16:30.351Z,14.75
2017-12-17T04:18:58.434Z,13.90
2017-12-17T04:21:26.567Z,17.67
2017-12-17T04:23:55.378Z,16.45
2017-12-17T04:26:23.459Z,18.35
2017-12-17T04:28:51.539Z,17.45
2017-12-17T04:31:19.673Z,18.35
2017-12-17T04:33:47.780Z,20.42
2017-12-17T04:36:15.863Z,18.27
2017-12-17T04:38:44.718Z,18.05
2017-12-17T04:41:12.816Z,18.60
2017-12-17T04:43:40.895Z,20.27
2017-12-17T04:46:09.778Z,22.50
2017-12-17T04:48:37.843Z,20.88
2017-12-17T04:51:05.953Z,17.33
2017-12-17T04:53:34.389Z,20.62
2017-12-17T04:56:02.476Z,19.17
2017-12-17T04:58:31.327Z,20.08
2017-12-17T05:00:59.655Z,20.27
2017-12-17T05:03:28.516Z,17.90
2017-12-17T05:05:56.608Z,19.00
2017-12-17T05:08:25.452Z,20.17
2017-12-17T05:10:53.581Z,25.30
2017-12-17T05:13:21.620Z,22.33
2017-12-17T05:15:50.483Z,24.48
2017-12-17T05:18:18.561Z,20.40
2017-12-17T05:20:46.659Z,22.67
2017-12-17T05:23:15.526Z,19.65
2017-12-17T05:25:43.610Z,22.98
2017-12-17T05:28:11.692Z,27.00
2017-12-17T05:30:40.600Z,24.77
2017-12-17T05:33:08.696Z,24.65
2017-12-17T05:35:36.772Z,25.05
2017-12-17T05:38:04.872Z,23.55
2017-12-17T05:40:32.952Z,22.15
2017-12-17T05:43:01.808Z,21.25
2017-12-17T05:45:29.896Z,22.92
2017-12-17T05:47:57.987Z,22.80
2017-12-17T05:50:26.835Z,23.67
2017-12-17T05:52:54.935Z,27.25
2017-12-17T05:55:23.785Z,22.25
2017-12-17T05:57:51.886Z,22.10
2017-12-17T06:00:19.976Z,22.13
2017-12-17T06:02:48.837Z,22.30
2017-12-17T06:05:16.921Z,24.58
2017-12-17T06:07:45.013Z,25.08
2017-12-17T06:10:13.865Z,25.20
2017-12-17T06:12:41.958Z,22.00
2017-12-17T06:15:11.159Z,27.08
2017-12-17T06:17:40.020Z,23.80
2017-12-17T06:20:08.120Z,22.50
2017-12-17T06:22:36.972Z,21.70
2017-12-17T06:25:05.070Z,21.98
2017-12-17T06:27:33.924Z,22.25
2017-12-17T06:30:02.017Z,20.92
2017-12-17T06:32:30.102Z,20.65
2017-12-17T06:34:58.951Z,21.27
2017-12-17T06:37:28.045Z,18.37
2017-12-17T06:39:56.131Z,16.80
2017-12-17T06:42:24.216Z,20.42
2017-12-17T06:44:52.332Z,22.52
2017-12-17T06:47:20.430Z,23.38
2017-12-17T06:49:48.516Z,19.23
2017-12-17T06:52:16.607Z,18.08
2017-12-17T06:54:45.452Z,17.75
2017-12-17T06:57:13.547Z,20.75
2017-12-17T06:59:41.677Z,19.83
2017-12-17T07:02:10.132Z,18.55
2017-12-17T07:04:38.263Z,21.08
2017-12-17T07:07:06.350Z,21.05
2017-12-17T07:09:35.224Z,18.17
2017-12-17T07:12:03.317Z,19.45
2017-12-17T07:14:32.161Z,17.60
2017-12-17T07:17:00.251Z,21.50
2017-12-17T07:19:28.343Z,19.00
2017-12-17T07:21:57.197Z,22.08
2017-12-17T07:24:25.279Z,19.75
2017-12-17T07:26:53.376Z,20.02
2017-12-17T07:29:22.230Z,21.70
2017-12-17T07:31:50.324Z,20.60
2017-12-17T07:34:18.405Z,17.92
2017-12-17T07:36:47.275Z,17.10
2017-12-17T07:39:15.345Z,20.40
2017-12-17T07:41:43.431Z,20.77
2017-12-17T07:44:12.279Z,19.83
2017-12-17T07:46:40.360Z,17.17
2017-12-17T07:49:08.455Z,21.17
2017-12-17T07:51:36.559Z,19.95
2017-12-17T07:54:04.638Z,15.95
2017-12-17T07:56:32.732Z,17.25
2017-12-17T07:59:00.819Z,15.75
2017-12-17T08:01:28.912Z,17.48
2017-12-17T08:03:57.774Z,13.35
2017-12-17T08:06:25.871Z,18.17
2017-12-17T08:08:53.954Z,17.08
2017-12-17T08:11:22.927Z,20.35
2017-12-17T08:13:51.028Z,16.80
2017-12-17T08:16:19.107Z,14.87
2017-12-17T08:18:47.195Z,16.73
2017-12-17T08:21:15.404Z,17.05
2017-12-17T08:23:43.587Z,19.08
2017-12-17T08:26:12.433Z,16.87
2017-12-17T08:28:40.531Z,18.42
2017-12-17T08:31:08.616Z,24.63
2017-12-17T08:33:37.471Z,18.12
2017-12-17T08:36:05.556Z,14.65
2017-12-17T08:38:33.649Z,17.35
2017-12-17T08:41:02.497Z,17.02
2017-12-17T08:43:30.579Z,20.12
2017-12-17T08:45:58.763Z,16.35
2017-12-17T08:48:26.849Z,17.62
2017-12-17T08:50:55.699Z,19.65
2017-12-17T08:53:23.796Z,16.70
2017-12-17T08:55:52.644Z,17.27
2017-12-17T08:58:20.741Z,20.37
2017-12-17T09:00:49.375Z,15.45
2017-12-17T09:03:17.836Z,17.52
2017-12-17T09:05:46.672Z,17.10
2017-12-17T09:08:14.863Z,15.25
2017-12-17T09:10:42.960Z,19.37
2017-12-17T09:13:11.836Z,15.73
2017-12-17T09:15:39.924Z,19.70
2017-12-17T09:18:08.792Z,14.75
2017-12-17T09:20:36.885Z,17.33
2017-12-17T09:23:04.972Z,15.75
2017-12-17T09:25:33.046Z,16.27
2017-12-17T09:28:01.137Z,16.25
2017-12-17T09:30:29.266Z,16.15
2017-12-17T09:32:57.347Z,17.60
2017-12-17T09:35:25.443Z,17.30
2017-12-17T09:37:53.519Z,14.73
2017-12-17T09:40:21.611Z,18.15
2017-12-17T09:42:49.696Z,15.38
2017-12-17T09:45:18.550Z,17.58
2017-12-17T09:47:46.650Z,17.42
2017-12-17T09:50:14.746Z,15.68
2017-12-17T09:52:42.842Z,17.70
2017-12-17T09:55:10.932Z,15.55
2017-12-17T09:57:39.019Z,17.37
2017-12-17T10:00:07.133Z,14.32
2017-12-17T10:02:35.225Z,16.27
2017-12-17T10:05:03.316Z,19.12
2017-12-17T10:07:31.414Z,19.00
2017-12-17T10:09:59.501Z,16.42
2017-12-17T10:12:28.360Z,17.00
2017-12-17T10:14:56.456Z,16.02
2017-12-17T10:17:25.304Z,17.10
2017-12-17T10:19:53.392Z,18.25
2017-12-17T10:22:21.488Z,15.30
2017-12-17T10:24:50.345Z,15.70
2017-12-17T10:27:18.435Z,15.63
2017-12-17T10:29:46.520Z,14.45
2017-12-17T10:32:15.368Z,15.95
2017-12-17T10:34:43.459Z,18.67
2017-12-17T10:37:11.527Z,15.70
2017-12-17T10:39:39.616Z,14.75
2017-12-17T10:42:08.477Z,14.75
2017-12-17T10:44:36.564Z,13.10
2017-12-17T10:47:05.420Z,13.20
2017-12-17T10:49:33.503Z,15.18
2017-12-17T10:52:01.592Z,13.52
2017-12-17T10:54:29.668Z,13.02
2017-12-17T10:56:58.535Z,13.80
2017-12-17T10:59:26.661Z,12.82
2017-12-17T11:01:54.751Z,14.07
2017-12-17T11:04:22.855Z,12.77
2017-12-17T11:06:50.951Z,12.82
2017-12-17T11:09:19.808Z,13.60
2017-12-17T11:11:47.924Z,22.95
2017-12-17T11:14:16.027Z,12.40
2017-12-17T11:16:44.128Z,11.80
2017-12-17T11:19:12.211Z,11.40
2017-12-17T11:21:41.071Z,11.82
2017-12-17T11:24:09.148Z,14.18
2017-12-17T11:26:37.225Z,10.88
2017-12-17T11:29:05.694Z,12.82
2017-12-17T11:31:33.764Z,11.68
2017-12-17T11:34:02.238Z,12.05
2017-12-17T11:36:30.352Z,10.52
2017-12-17T11:38:59.203Z,15.23
2017-12-17T11:41:27.334Z,10.82
2017-12-17T11:43:55.417Z,10.88
2017-12-17T11:46:23.498Z,10.20
2017-12-17T11:48:51.574Z,10.43
2017-12-17T11:51:19.717Z,10.95
2017-12-17T11:53:47.845Z,10.85
2017-12-17T11:56:15.978Z,13.30
2017-12-17T11:58:44.781Z,10.77
2017-12-17T12:01:12.858Z,12.50
2017-12-17T12:03:41.125Z,10.80
2017-12-17T12:06:09.239Z,11.55
2017-12-17T12:08:38.077Z,11.57
2017-12-17T12:11:06.168Z,14.87
2017-12-17T12:13:34.290Z,14.55
2017-12-17T12:16:02.443Z,11.63
2017-12-17T12:18:31.289Z,12.85
2017-12-17T12:20:59.413Z,11.32
2017-12-17T12:23:27.538Z,12.40
2017-12-17T12:25:55.611Z,12.13
2017-12-17T12:28:25.211Z,10.35
2017-12-17T12:30:53.381Z,13.02
2017-12-17T12:33:21.467Z,11.68
2017-12-17T12:35:50.354Z,13.45
2017-12-17T12:38:18.448Z,15.52
2017-12-17T12:40:46.572Z,11.80
2017-12-17T12:43:14.696Z,11.57
2017-12-17T12:45:43.567Z,12.20
2017-12-17T12:48:12.451Z,9.85
2017-12-17T12:50:40.515Z,15.38
2017-12-17T12:53:09.376Z,11.60
2017-12-17T12:55:37.538Z,9.70
2017-12-17T12:58:05.670Z,11.52
2017-12-17T13:00:34.494Z,9.38
2017-12-17T13:03:02.607Z,9.90
2017-12-17T13:05:31.511Z,10.43
2017-12-17T13:08:00.391Z,21.08
2017-12-17T13:10:29.239Z,10.70
2017-12-17T13:12:57.332Z,9.60
2017-12-17T13:15:25.432Z,10.15
2017-12-17T13:17:53.573Z,9.45
2017-12-17T13:20:21.707Z,10.82
2017-12-17T13:22:49.792Z,10.70
2017-12-17T13:25:17.888Z,10.02
2017-12-17T13:27:46.758Z,13.23
2017-12-17T13:30:14.836Z,9.60
2017-12-17T13:32:42.957Z,10.60
2017-12-17T13:35:11.095Z,9.95
2017-12-17T13:37:39.185Z,14.02
2017-12-17T13:40:08.032Z,11.70
2017-12-17T13:42:36.174Z,13.52
2017-12-17T13:45:05.087Z,10.55
2017-12-17T13:47:33.234Z,11.23
2017-12-17T13:50:01.308Z,12.88
2017-12-17T13:52:29.441Z,13.10
2017-12-17T13:54:58.364Z,10.05
2017-12-17T13:57:26.494Z,12.45
2017-12-17T13:59:54.556Z,9.63
2017-12-17T14:02:23.455Z,13.25
2017-12-17T14:04:52.337Z,11.63
2017-12-17T14:07:21.232Z,11.48
2017-12-17T14:09:49.361Z,15.82
2017-12-17T14:12:17.478Z,15.02
2017-12-17T14:14:46.332Z,13.23
2017-12-17T14:17:14.465Z,12.18
2017-12-17T14:19:42.676Z,12.13
2017-12-17T14:22:10.795Z,10.98
2017-12-17T14:24:38.889Z,13.65
2017-12-17T14:27:06.970Z,12.13
2017-12-17T14:29:35.060Z,12.25
2017-12-17T14:32:03.206Z,14.70
2017-12-17T14:34:31.987Z,16.23
2017-12-17T14:37:00.082Z,10.75
2017-12-17T14:39:28.179Z,11.02
2017-12-17T14:41:57.063Z,10.68
2017-12-17T14:44:25.131Z,10.65
2017-12-17T14:46:54.029Z,12.68
2017-12-17T14:49:22.101Z,15.43
2017-12-17T14:51:50.952Z,10.10
2017-12-17T14:54:19.091Z,12.25
2017-12-17T14:56:47.159Z,11.43
2017-12-17T14:59:15.295Z,11.38
2017-12-17T15:01:43.377Z,12.43
2017-12-17T15:04:11.493Z,11.40
2017-12-17T15:06:39.579Z,15.07
2017-12-17T15:09:07.794Z,13.10
2017-12-17T15:11:35.877Z,19.75
2017-12-17T15:14:04.015Z,11.30
2017-12-17T15:16:32.164Z,15.00
2017-12-17T15:19:00.391Z,13.60
2017-12-17T15:21:28.518Z,16.00
2017-12-17T15:23:56.587Z,12.63
2017-12-17T15:26:24.675Z,14.68
2017-12-17T15:28:53.543Z,14.05
2017-12-17T15:31:21.624Z,13.00
2017-12-17T15:33:50.509Z,14.18
2017-12-17T15:36:18.630Z,13.98
2017-12-17T15:38:46.775Z,13.80
2017-12-17T15:41:15.655Z,14.45
2017-12-17T15:43:44.545Z,13.50
2017-12-17T15:46:13.474Z,15.70
2017-12-17T15:48:41.551Z,14.07
2017-12-17T15:51:09.641Z,12.57
2017-12-17T15:53:37.775Z,13.50
2017-12-17T15:56:05.994Z,12.18
2017-12-17T15:58:34.148Z,14.77
2017-12-17T16:01:02.236Z,15.95
2017-12-17T16:03:30.332Z,11.98
2017-12-17T16:05:59.171Z,14.57
2017-12-17T16:08:27.306Z,14.25
2017-12-17T16:10:55.428Z,12.95
2017-12-17T16:13:23.557Z,17.52
2017-12-17T16:15:51.630Z,14.70
2017-12-17T16:18:19.828Z,14.25
2017-12-17T16:20:47.943Z,15.85
2017-12-17T16:23:16.229Z,15.18
2017-12-17T16:25:45.116Z,15.02
2017-12-17T16:28:14.006Z,13.88
2017-12-17T16:30:42.886Z,14.80
2017-12-17T16:33:11.017Z,13.95
2017-12-17T16:35:39.131Z,14.60
2017-12-17T16:38:07.979Z,14.65
2017-12-17T16:40:36.065Z,16.98
2017-12-17T16:43:04.182Z,15.27
2017-12-17T16:45:32.308Z,17.17
2017-12-17T16:48:00.428Z,16.95
2017-12-17T16:50:28.561Z,16.85
2017-12-17T16:52:56.670Z,15.38
2017-12-17T16:55:24.742Z,16.80
2017-12-17T16:57:52.823Z,16.02
2017-12-17T17:00:20.912Z,17.37
2017-12-17T17:02:49.038Z,16.70
2017-12-17T17:05:17.927Z,17.17
2017-12-17T17:07:46.812Z,17.80
2017-12-17T17:10:15.687Z,18.50
2017-12-17T17:12:44.543Z,18.62
2017-12-17T17:15:12.662Z,14.45
2017-12-17T17:17:41.550Z,16.52
2017-12-17T17:20:10.438Z,15.18
2017-12-17T17:22:39.349Z,18.62
2017-12-17T17:25:07.491Z,15.80
2017-12-17T17:27:35.591Z,16.37
2017-12-17T17:30:04.080Z,21.67
2017-12-17T17:32:32.203Z,16.50
2017-12-17T17:35:00.330Z,16.80
2017-12-17T17:37:28.459Z,17.17
2017-12-17T17:39:57.346Z,21.20
2017-12-17T17:42:25.479Z,17.48
2017-12-17T17:44:53.596Z,15.70
2017-12-17T17:47:22.487Z,18.08
2017-12-17T17:49:51.636Z,19.48
2017-12-17T17:52:19.694Z,17.42
2017-12-17T17:54:47.821Z,19.85
2017-12-17T17:57:16.705Z,18.67
2017-12-17T17:59:45.586Z,18.00
2017-12-17T18:02:13.739Z,21.12
2017-12-17T18:04:41.840Z,21.23
2017-12-17T18:07:10.749Z,25.30
2017-12-17T18:09:38.810Z,19.52
2017-12-17T18:12:06.959Z,18.25
2017-12-17T18:14:35.084Z,20.05
2017-12-17T18:17:03.207Z,19.10
2017-12-17T18:19:31.324Z,19.85
2017-12-17T18:21:59.452Z,22.48
2017-12-17T18:24:27.561Z,20.40
2017-12-17T18:26:55.666Z,20.88
2017-12-17T18:29:23.798Z,20.58
2017-12-17T18:31:51.915Z,20.83
2017-12-17T18:34:20.050Z,18.00
2017-12-17T18:36:48.154Z,16.50
2017-12-17T18:39:16.374Z,19.62
2017-12-17T18:41:44.498Z,23.00
2017-12-17T18:44:12.634Z,18.83
2017-12-17T18:46:40.735Z,18.60
2017-12-17T18:49:08.866Z,18.75
2017-12-17T18:51:36.981Z,20.17
2017-12-17T18:54:05.098Z,18.60
2017-12-17T18:56:33.216Z,18.85
2017-12-17T18:59:01.352Z,19.70
2017-12-17T19:01:29.421Z,19.08
2017-12-17T19:03:57.521Z,20.37
2017-12-17T19:06:25.665Z,18.33
2017-12-17T19:08:53.782Z,19.95
2017-12-17T19:11:21.931Z,18.60
2017-12-17T19:13:50.065Z,17.25
2017-12-17T19:16:18.177Z,24.20
2017-12-17T19:18:46.397Z,20.02
2017-12-17T19:21:14.465Z,20.17
2017-12-17T19:23:43.359Z,17.58
2017-12-17T19:26:12.267Z,21.08
2017-12-17T19:28:40.395Z,21.12
2017-12-17T19:31:08.514Z,21.17
2017-12-17T19:33:36.669Z,20.92
2017-12-17T19:36:05.572Z,20.37
2017-12-17T19:38:33.694Z,19.00
2017-12-17T19:41:01.826Z,22.83
2017-12-17T19:43:29.963Z,22.50
2017-12-17T19:45:58.863Z,21.23
2017-12-17T19:48:27.036Z,23.67
2017-12-17T19:50:55.107Z,24.20
2017-12-17T19:53:23.483Z,23.00
2017-12-17T19:55:52.503Z,26.08
2017-12-17T19:58:20.643Z,26.58
2017-12-17T20:00:49.611Z,29.25
2017-12-17T20:03:17.927Z,23.62
2017-12-17T20:05:46.236Z,35.88
2017-12-17T20:08:14.400Z,25.92
2017-12-17T20:10:43.458Z,32.35
2017-12-17T20:13:11.616Z,25.62
2017-12-17T20:15:39.939Z,29.12
2017-12-17T20:18:08.358Z,26.20
2017-12-17T20:20:36.508Z,28.55
2017-12-17T20:23:05.482Z,26.45
2017-12-17T20:25:33.657Z,35.22
2017-12-17T20:28:01.850Z,26.33
2017-12-17T20:30:30.739Z,31.17
2017-12-17T20:32:58.875Z,31.02
2017-12-17T20:35:28.400Z,28.80
2017-12-17T20:37:56.681Z,39.05
2017-12-17T20:40:24.841Z,27.20
2017-12-17T20:42:53.111Z,33.80
2017-12-17T20:45:21.263Z,28.33
2017-12-17T20:47:50.247Z,39.05
2017-12-17T20:50:18.429Z,61.92
2017-12-17T20:52:46.570Z,31.50
2017-12-17T20:55:16.483Z,24.52
2017-12-17T20:57:44.667Z,54.45
2017-12-17T21:00:12.886Z,34.65
2017-12-17T21:02:41.016Z,35.75
2017-12-17T21:05:09.130Z,27.30
2017-12-17T21:07:37.331Z,33.17
2017-12-17T21:10:06.296Z,37.80
2017-12-17T21:12:34.572Z,38.90
2017-12-17T21:15:02.762Z,28.42
2017-12-17T21:17:31.762Z,41.17
2017-12-17T21:20:00.103Z,30.27
2017-12-17T21:22:28.308Z,75.37
2017-12-17T21:24:57.195Z,27.37
2017-12-17T21:27:26.079Z,35.55
2017-12-17T21:29:54.982Z,48.28
2017-12-17T21:32:23.896Z,52.55
2017-12-17T21:34:52.054Z,42.65
2017-12-17T21:37:20.957Z,34.80
2017-12-17T21:39:49.124Z,26.00
2017-12-17T21:42:17.243Z,40.20
2017-12-17T21:44:45.390Z,40.72
2017-12-17T21:47:13.518Z,63.33
2017-12-17T21:49:41.670Z,32.22
2017-12-17T21:52:10.582Z,33.42
2017-12-17T21:54:38.712Z,58.95
2017-12-17T21:57:06.830Z,25.62
2017-12-17T21:59:34.960Z,65.00
2017-12-17T22:02:03.081Z,150.80
2017-12-17T22:04:31.269Z,46.28
2017-12-17T22:06:59.407Z,37.70
2017-12-17T22:09:28.430Z,27.60
2017-12-17T22:11:56.547Z,38.80
2017-12-17T22:14:24.753Z,29.12
2017-12-17T22:16:52.887Z,38.00
2017-12-17T22:19:21.015Z,62.53
2017-12-17T22:21:49.173Z,37.78
2017-12-17T22:24:17.302Z,32.05
2017-12-17T22:26:45.510Z,37.28
2017-12-17T22:29:13.680Z,23.33
2017-12-17T22:31:41.797Z,37.47
2017-12-17T22:34:09.931Z,66.47
2017-12-17T22:36:38.067Z,33.88
2017-12-17T22:39:07.697Z,23.80
2017-12-17T22:41:35.822Z,31.75
2017-12-17T22:44:03.945Z,27.15
2017-12-17T22:46:32.066Z,47.65
2017-12-17T22:49:00.191Z,31.08
2017-12-17T22:51:28.317Z,22.70
2017-12-17T22:53:56.449Z,30.33
2017-12-17T22:56:24.569Z,22.77
2017-12-17T22:58:52.684Z,25.45
2017-12-17T23:01:20.803Z,147.25
2017-12-17T23:03:48.909Z,134.45
2017-12-17T23:06:17.031Z,40.22
2017-12-17T23:08:45.147Z,59.92
2017-12-17T23:11:13.347Z,71.57
2017-12-17T23:13:41.458Z,46.17
2017-12-17T23:16:09.531Z,28.08
2017-12-17T23:18:38.421Z,21.27
2017-12-17T23:21:06.504Z,21.05
2017-12-17T23:23:35.389Z,40.25
2017-12-17T23:26:03.526Z,29.10
2017-12-17T23:28:31.596Z,30.98
2017-12-17T23:30:59.714Z,36.00
2017-12-17T23:33:28.559Z,22.33
2017-12-17T23:35:56.639Z,21.30
2017-12-17T23:38:24.737Z,26.42
2017-12-17T23:40:52.820Z,20.23
2017-12-17T23:43:20.905Z,19.12
2017-12-17T23:45:48.996Z,23.75
2017-12-17T23:48:17.088Z,20.15
2017-12-17T23:50:45.171Z,24.48
2017-12-17T23:53:14.019Z,33.05
2017-12-17T23:55:42.139Z,39.45
2017-12-17T23:58:10.999Z,35.75
